sensor_id;sensor_type;location;lat;lon;timestamp;P1;durP1;ratioP1;P2;durP2;ratioP2
55469;SDS011;41334;47.872;16.384;2023-10-31T00:03:14;2.83;;;1.10;;
55469;SDS011;41334;47.872;16.384;2023-10-31T00:14:24;3.20;;;1.20;;
55469;SDS011;41334;47.872;16.384;2023-10-31T00:20:14;2.05;;;0.88;;
55469;SDS011;41334;47.872;16.384;2023-10-31T00:25:51;3.67;;;1.08;;
55469;SDS011;41334;47.872;16.384;2023-10-31T00:31:46;4.38;;;1.17;;
55469;SDS011;41334;47.872;16.384;2023-10-31T00:37:31;2.97;;;0.80;;
55469;SDS011;41334;47.872;16.384;2023-10-31T00:43:03;4.38;;;1.27;;
55469;SDS011;41334;47.872;16.384;2023-10-31T00:48:43;5.68;;;1.13;;
55469;SDS011;41334;47.872;16.384;2023-10-31T00:54:17;4.22;;;1.27;;
55469;SDS011;41334;47.872;16.384;2023-10-31T01:06:09;6.10;;;0.88;;
55469;SDS011;41334;47.872;16.384;2023-10-31T01:12:36;2.08;;;0.80;;
55469;SDS011;41334;47.872;16.384;2023-10-31T01:18:19;0.95;;;0.60;;
55469;SDS011;41334;47.872;16.384;2023-10-31T01:23:56;9.02;;;0.90;;
55469;SDS011;41334;47.872;16.384;2023-10-31T01:29:25;5.80;;;1.50;;
55469;SDS011;41334;47.872;16.384;2023-10-31T01:34:52;4.07;;;1.60;;
55469;SDS011;41334;47.872;16.384;2023-10-31T01:40:19;3.22;;;1.40;;
55469;SDS011;41334;47.872;16.384;2023-10-31T01:46:27;2.22;;;1.02;;
55469;SDS011;41334;47.872;16.384;2023-10-31T01:57:51;4.15;;;1.35;;
55469;SDS011;41334;47.872;16.384;2023-10-31T02:03:20;4.32;;;1.50;;
55469;SDS011;41334;47.872;16.384;2023-10-31T02:08:44;1.10;;;0.57;;
55469;SDS011;41334;47.872;16.384;2023-10-31T02:14:13;2.72;;;0.82;;
55469;SDS011;41334;47.872;16.384;2023-10-31T02:19:47;2.53;;;0.88;;
55469;SDS011;41334;47.872;16.384;2023-10-31T02:25:15;6.40;;;1.55;;
55469;SDS011;41334;47.872;16.384;2023-10-31T02:31:11;3.22;;;1.20;;
55469;SDS011;41334;47.872;16.384;2023-10-31T02:36:25;5.97;;;1.00;;
55469;SDS011;41334;47.872;16.384;2023-10-31T02:42:02;3.05;;;1.25;;
55469;SDS011;41334;47.872;16.384;2023-10-31T02:48:10;2.33;;;1.23;;
55469;SDS011;41334;47.872;16.384;2023-10-31T02:53:56;3.72;;;1.23;;
55469;SDS011;41334;47.872;16.384;2023-10-31T02:59:26;5.25;;;1.40;;
55469;SDS011;41334;47.872;16.384;2023-10-31T03:05:18;2.65;;;1.00;;
55469;SDS011;41334;47.872;16.384;2023-10-31T03:11:39;2.42;;;0.98;;
55469;SDS011;41334;47.872;16.384;2023-10-31T03:17:17;2.28;;;1.02;;
55469;SDS011;41334;47.872;16.384;2023-10-31T03:23:35;2.15;;;0.80;;
55469;SDS011;41334;47.872;16.384;2023-10-31T03:29:16;2.03;;;0.95;;
55469;SDS011;41334;47.872;16.384;2023-10-31T03:35:26;2.55;;;0.93;;
55469;SDS011;41334;47.872;16.384;2023-10-31T03:41:05;2.90;;;1.10;;
55469;SDS011;41334;47.872;16.384;2023-10-31T03:46:15;3.00;;;1.05;;
55469;SDS011;41334;47.872;16.384;2023-10-31T03:52:22;2.13;;;0.82;;
55469;SDS011;41334;47.872;16.384;2023-10-31T03:57:54;4.53;;;0.80;;
55469;SDS011;41334;47.872;16.384;2023-10-31T04:03:57;2.63;;;0.88;;
55469;SDS011;41334;47.872;16.384;2023-10-31T04:10:04;1.40;;;0.70;;
55469;SDS011;41334;47.872;16.384;2023-10-31T04:21:43;1.02;;;0.60;;
55469;SDS011;41334;47.872;16.384;2023-10-31T04:27:54;1.77;;;0.40;;
55469;SDS011;41334;47.872;16.384;2023-10-31T04:39:18;0.40;;;0.20;;
55469;SDS011;41334;47.872;16.384;2023-10-31T04:45:00;0.20;;;0.10;;
55469;SDS011;41334;47.872;16.384;2023-10-31T04:50:43;0.03;;;0.00;;
55469;SDS011;41334;47.872;16.384;2023-10-31T04:56:14;0.05;;;0.00;;
55469;SDS011;41334;47.872;16.384;2023-10-31T05:01:17;0.00;;;0.00;;
55469;SDS011;41334;47.872;16.384;2023-10-31T05:06:19;0.32;;;0.10;;
55469;SDS011;41334;47.872;16.384;2023-10-31T05:11:22;0.10;;;0.03;;
55469;SDS011;41334;47.872;16.384;2023-10-31T05:16:24;0.00;;;0.00;;
55469;SDS011;41334;47.872;16.384;2023-10-31T05:21:26;0.30;;;0.10;;
55469;SDS011;41334;47.872;16.384;2023-10-31T05:26:28;0.03;;;0.03;;
55469;SDS011;41334;47.872;16.384;2023-10-31T05:31:31;0.00;;;0.00;;
55469;SDS011;41334;47.872;16.384;2023-10-31T05:36:33;0.10;;;0.00;;
55469;SDS011;41334;47.872;16.384;2023-10-31T05:41:35;0.30;;;0.00;;
55469;SDS011;41334;47.872;16.384;2023-10-31T05:46:40;0.10;;;0.00;;
55469;SDS011;41334;47.872;16.384;2023-10-31T05:51:42;0.13;;;0.10;;
55469;SDS011;41334;47.872;16.384;2023-10-31T05:56:48;0.20;;;0.10;;
55469;SDS011;41334;47.872;16.384;2023-10-31T06:01:50;0.00;;;0.00;;
55469;SDS011;41334;47.872;16.384;2023-10-31T06:06:52;0.00;;;0.00;;
55469;SDS011;41334;47.872;16.384;2023-10-31T06:11:53;0.22;;;0.10;;
55469;SDS011;41334;47.872;16.384;2023-10-31T06:16:55;0.10;;;0.03;;
55469;SDS011;41334;47.872;16.384;2023-10-31T06:22:00;0.38;;;0.00;;
55469;SDS011;41334;47.872;16.384;2023-10-31T06:27:27;1.20;;;0.28;;
55469;SDS011;41334;47.872;16.384;2023-10-31T06:32:29;0.32;;;0.20;;
55469;SDS011;41334;47.872;16.384;2023-10-31T06:37:31;0.30;;;0.10;;
55469;SDS011;41334;47.872;16.384;2023-10-31T06:42:32;0.20;;;0.10;;
55469;SDS011;41334;47.872;16.384;2023-10-31T06:47:34;0.20;;;0.10;;
55469;SDS011;41334;47.872;16.384;2023-10-31T06:52:36;1.38;;;0.00;;
55469;SDS011;41334;47.872;16.384;2023-10-31T06:57:38;0.25;;;0.00;;
55469;SDS011;41334;47.872;16.384;2023-10-31T07:02:40;0.20;;;0.05;;
55469;SDS011;41334;47.872;16.384;2023-10-31T07:07:42;0.03;;;0.00;;
55469;SDS011;41334;47.872;16.384;2023-10-31T07:12:44;0.05;;;0.00;;
55469;SDS011;41334;47.872;16.384;2023-10-31T07:17:46;0.00;;;0.00;;
55469;SDS011;41334;47.872;16.384;2023-10-31T07:22:48;0.32;;;0.00;;
55469;SDS011;41334;47.872;16.384;2023-10-31T07:27:50;0.47;;;0.20;;
55469;SDS011;41334;47.872;16.384;2023-10-31T07:32:52;0.38;;;0.20;;
55469;SDS011;41334;47.872;16.384;2023-10-31T07:37:54;0.03;;;0.00;;
55469;SDS011;41334;47.872;16.384;2023-10-31T07:42:56;0.10;;;0.05;;
55469;SDS011;41334;47.872;16.384;2023-10-31T07:47:58;0.13;;;0.00;;
55469;SDS011;41334;47.872;16.384;2023-10-31T07:53:00;0.10;;;0.00;;
55469;SDS011;41334;47.872;16.384;2023-10-31T07:58:02;0.10;;;0.00;;
55469;SDS011;41334;47.872;16.384;2023-10-31T08:03:04;0.25;;;0.10;;
55469;SDS011;41334;47.872;16.384;2023-10-31T08:08:06;0.22;;;0.00;;
55469;SDS011;41334;47.872;16.384;2023-10-31T08:13:07;0.55;;;0.10;;
55469;SDS011;41334;47.872;16.384;2023-10-31T08:18:09;0.10;;;0.00;;
55469;SDS011;41334;47.872;16.384;2023-10-31T08:23:11;0.10;;;0.00;;
55469;SDS011;41334;47.872;16.384;2023-10-31T08:28:13;0.00;;;0.00;;
55469;SDS011;41334;47.872;16.384;2023-10-31T08:33:15;0.30;;;0.20;;
55469;SDS011;41334;47.872;16.384;2023-10-31T08:38:17;0.40;;;0.20;;
55469;SDS011;41334;47.872;16.384;2023-10-31T08:43:32;2.45;;;0.43;;
55469;SDS011;41334;47.872;16.384;2023-10-31T08:48:33;1.00;;;0.50;;
55469;SDS011;41334;47.872;16.384;2023-10-31T08:53:36;0.80;;;0.30;;
55469;SDS011;41334;47.872;16.384;2023-10-31T08:58:38;0.28;;;0.15;;
55469;SDS011;41334;47.872;16.384;2023-10-31T09:03:39;0.30;;;0.13;;
55469;SDS011;41334;47.872;16.384;2023-10-31T09:08:41;0.77;;;0.20;;
55469;SDS011;41334;47.872;16.384;2023-10-31T09:13:43;0.10;;;0.10;;
55469;SDS011;41334;47.872;16.384;2023-10-31T09:18:45;0.30;;;0.10;;
55469;SDS011;41334;47.872;16.384;2023-10-31T09:23:48;0.25;;;0.10;;
55469;SDS011;41334;47.872;16.384;2023-10-31T09:28:50;0.50;;;0.20;;
55469;SDS011;41334;47.872;16.384;2023-10-31T09:33:52;0.63;;;0.20;;
55469;SDS011;41334;47.872;16.384;2023-10-31T09:38:54;0.13;;;0.00;;
55469;SDS011;41334;47.872;16.384;2023-10-31T09:43:56;0.50;;;0.10;;
55469;SDS011;41334;47.872;16.384;2023-10-31T09:48:58;0.30;;;0.10;;
55469;SDS011;41334;47.872;16.384;2023-10-31T09:54:01;0.10;;;0.10;;
55469;SDS011;41334;47.872;16.384;2023-10-31T09:59:04;0.03;;;0.00;;
55469;SDS011;41334;47.872;16.384;2023-10-31T10:04:08;0.50;;;0.10;;
55469;SDS011;41334;47.872;16.384;2023-10-31T10:09:10;1.77;;;0.40;;
55469;SDS011;41334;47.872;16.384;2023-10-31T10:14:12;6.40;;;0.43;;
55469;SDS011;41334;47.872;16.384;2023-10-31T10:19:14;0.35;;;0.17;;
55469;SDS011;41334;47.872;16.384;2023-10-31T10:24:23;0.43;;;0.25;;
55469;SDS011;41334;47.872;16.384;2023-10-31T10:29:26;1.77;;;0.35;;
55469;SDS011;41334;47.872;16.384;2023-10-31T10:34:29;1.25;;;0.43;;
55469;SDS011;41334;47.872;16.384;2023-10-31T10:39:32;1.30;;;0.50;;
55469;SDS011;41334;47.872;16.384;2023-10-31T10:44:37;7.53;;;0.52;;
55469;SDS011;41334;47.872;16.384;2023-10-31T10:49:45;0.45;;;0.20;;
55469;SDS011;41334;47.872;16.384;2023-10-31T10:54:54;0.68;;;0.30;;
55469;SDS011;41334;47.872;16.384;2023-10-31T11:00:02;1.15;;;0.50;;
55469;SDS011;41334;47.872;16.384;2023-10-31T11:05:06;2.40;;;0.20;;
55469;SDS011;41334;47.872;16.384;2023-10-31T11:10:11;1.92;;;0.40;;
55469;SDS011;41334;47.872;16.384;2023-10-31T11:15:15;0.22;;;0.10;;
55469;SDS011;41334;47.872;16.384;2023-10-31T11:20:18;1.02;;;0.10;;
55469;SDS011;41334;47.872;16.384;2023-10-31T11:25:21;0.20;;;0.00;;
55469;SDS011;41334;47.872;16.384;2023-10-31T11:30:33;0.10;;;0.00;;
55469;SDS011;41334;47.872;16.384;2023-10-31T11:35:36;0.10;;;0.00;;
55469;SDS011;41334;47.872;16.384;2023-10-31T11:45:51;0.35;;;0.20;;
55469;SDS011;41334;47.872;16.384;2023-10-31T11:50:53;1.38;;;0.30;;
55469;SDS011;41334;47.872;16.384;2023-10-31T11:55:57;1.15;;;0.20;;
55469;SDS011;41334;47.872;16.384;2023-10-31T12:01:03;0.65;;;0.20;;
55469;SDS011;41334;47.872;16.384;2023-10-31T12:06:07;1.17;;;0.55;;
55469;SDS011;41334;47.872;16.384;2023-10-31T12:11:17;0.93;;;0.50;;
55469;SDS011;41334;47.872;16.384;2023-10-31T12:16:23;10.55;;;1.73;;
55469;SDS011;41334;47.872;16.384;2023-10-31T12:26:45;0.00;;;0.00;;
55469;SDS011;41334;47.872;16.384;2023-10-31T12:31:49;0.85;;;0.40;;
55469;SDS011;41334;47.872;16.384;2023-10-31T12:36:55;2.20;;;0.77;;
55469;SDS011;41334;47.872;16.384;2023-10-31T12:42:02;0.73;;;0.20;;
55469;SDS011;41334;47.872;16.384;2023-10-31T12:47:06;0.57;;;0.20;;
55469;SDS011;41334;47.872;16.384;2023-10-31T12:52:09;4.65;;;0.20;;
55469;SDS011;41334;47.872;16.384;2023-10-31T12:57:10;0.00;;;0.00;;
55469;SDS011;41334;47.872;16.384;2023-10-31T13:02:16;0.03;;;0.00;;
55469;SDS011;41334;47.872;16.384;2023-10-31T13:07:26;1.73;;;0.47;;
55469;SDS011;41334;47.872;16.384;2023-10-31T13:12:30;0.88;;;0.30;;
55469;SDS011;41334;47.872;16.384;2023-10-31T13:17:32;5.65;;;0.47;;
55469;SDS011;41334;47.872;16.384;2023-10-31T13:22:37;1.65;;;0.30;;
55469;SDS011;41334;47.872;16.384;2023-10-31T13:27:40;0.35;;;0.10;;
55469;SDS011;41334;47.872;16.384;2023-10-31T13:32:44;0.55;;;0.20;;
55469;SDS011;41334;47.872;16.384;2023-10-31T13:37:47;0.45;;;0.20;;
55469;SDS011;41334;47.872;16.384;2023-10-31T13:42:49;2.00;;;0.80;;
55469;SDS011;41334;47.872;16.384;2023-10-31T13:47:51;2.60;;;0.70;;
55469;SDS011;41334;47.872;16.384;2023-10-31T13:52:53;0.32;;;0.15;;
55469;SDS011;41334;47.872;16.384;2023-10-31T13:57:55;0.00;;;0.00;;
55469;SDS011;41334;47.872;16.384;2023-10-31T14:02:57;0.30;;;0.13;;
55469;SDS011;41334;47.872;16.384;2023-10-31T14:30:37;0.73;;;0.15;;
55469;SDS011;41334;47.872;16.384;2023-10-31T14:36:25;0.22;;;0.10;;
55469;SDS011;41334;47.872;16.384;2023-10-31T14:42:11;0.22;;;0.10;;
55469;SDS011;41334;47.872;16.384;2023-10-31T14:47:13;0.95;;;0.30;;
55469;SDS011;41334;47.872;16.384;2023-10-31T14:52:17;0.68;;;0.30;;
55469;SDS011;41334;47.872;16.384;2023-10-31T14:57:27;0.22;;;0.08;;
55469;SDS011;41334;47.872;16.384;2023-10-31T15:02:30;0.57;;;0.30;;
55469;SDS011;41334;47.872;16.384;2023-10-31T15:07:33;1.42;;;0.50;;
55469;SDS011;41334;47.872;16.384;2023-10-31T15:12:36;1.58;;;0.63;;
55469;SDS011;41334;47.872;16.384;2023-10-31T15:17:43;1.42;;;0.60;;
55469;SDS011;41334;47.872;16.384;2023-10-31T15:22:58;1.30;;;0.40;;
55469;SDS011;41334;47.872;16.384;2023-10-31T15:28:15;1.13;;;0.50;;
55469;SDS011;41334;47.872;16.384;2023-10-31T15:33:17;1.25;;;0.45;;
55469;SDS011;41334;47.872;16.384;2023-10-31T15:38:19;2.45;;;1.10;;
55469;SDS011;41334;47.872;16.384;2023-10-31T15:43:21;2.80;;;1.15;;
55469;SDS011;41334;47.872;16.384;2023-10-31T15:48:23;4.28;;;0.88;;
55469;SDS011;41334;47.872;16.384;2023-10-31T15:53:28;5.05;;;0.80;;
55469;SDS011;41334;47.872;16.384;2023-10-31T15:58:30;2.15;;;0.98;;
55469;SDS011;41334;47.872;16.384;2023-10-31T16:03:32;1.35;;;0.47;;
55469;SDS011;41334;47.872;16.384;2023-10-31T16:08:34;2.10;;;0.85;;
55469;SDS011;41334;47.872;16.384;2023-10-31T16:13:36;2.47;;;1.00;;
55469;SDS011;41334;47.872;16.384;2023-10-31T16:18:39;1.85;;;0.90;;
55469;SDS011;41334;47.872;16.384;2023-10-31T16:23:41;2.92;;;1.45;;
55469;SDS011;41334;47.872;16.384;2023-10-31T16:28:43;3.88;;;1.17;;
55469;SDS011;41334;47.872;16.384;2023-10-31T16:33:48;3.92;;;1.70;;
55469;SDS011;41334;47.872;16.384;2023-10-31T16:38:50;3.42;;;1.67;;
55469;SDS011;41334;47.872;16.384;2023-10-31T16:43:52;2.13;;;1.20;;
55469;SDS011;41334;47.872;16.384;2023-10-31T16:48:54;3.05;;;0.90;;
55469;SDS011;41334;47.872;16.384;2023-10-31T16:53:56;1.05;;;0.47;;
55469;SDS011;41334;47.872;16.384;2023-10-31T16:58:59;2.30;;;1.27;;
55469;SDS011;41334;47.872;16.384;2023-10-31T17:04:02;3.28;;;0.50;;
55469;SDS011;41334;47.872;16.384;2023-10-31T17:09:04;1.00;;;0.40;;
55469;SDS011;41334;47.872;16.384;2023-10-31T17:14:06;2.92;;;1.00;;
55469;SDS011;41334;47.872;16.384;2023-10-31T17:19:08;1.23;;;0.60;;
55469;SDS011;41334;47.872;16.384;2023-10-31T17:24:10;3.28;;;1.08;;
55469;SDS011;41334;47.872;16.384;2023-10-31T17:29:15;1.65;;;0.73;;
55469;SDS011;41334;47.872;16.384;2023-10-31T17:34:17;2.17;;;0.80;;
55469;SDS011;41334;47.872;16.384;2023-10-31T17:39:19;1.38;;;0.40;;
55469;SDS011;41334;47.872;16.384;2023-10-31T17:44:21;1.27;;;0.52;;
55469;SDS011;41334;47.872;16.384;2023-10-31T17:49:23;1.50;;;0.40;;
55469;SDS011;41334;47.872;16.384;2023-10-31T17:54:25;1.75;;;0.70;;
55469;SDS011;41334;47.872;16.384;2023-10-31T17:59:27;1.85;;;0.70;;
55469;SDS011;41334;47.872;16.384;2023-10-31T18:04:29;4.68;;;1.20;;
55469;SDS011;41334;47.872;16.384;2023-10-31T18:09:32;4.60;;;1.00;;
55469;SDS011;41334;47.872;16.384;2023-10-31T18:14:34;3.67;;;0.65;;
55469;SDS011;41334;47.872;16.384;2023-10-31T18:19:37;1.80;;;0.65;;
55469;SDS011;41334;47.872;16.384;2023-10-31T18:24:39;1.17;;;0.50;;
55469;SDS011;41334;47.872;16.384;2023-10-31T18:29:41;3.70;;;0.73;;
55469;SDS011;41334;47.872;16.384;2023-10-31T18:34:43;3.28;;;0.40;;
55469;SDS011;41334;47.872;16.384;2023-10-31T18:39:44;1.48;;;0.52;;
55469;SDS011;41334;47.872;16.384;2023-10-31T18:44:46;0.98;;;0.28;;
55469;SDS011;41334;47.872;16.384;2023-10-31T18:49:52;0.40;;;0.25;;
55469;SDS011;41334;47.872;16.384;2023-10-31T18:54:58;1.92;;;0.35;;
55469;SDS011;41334;47.872;16.384;2023-10-31T19:00:01;0.50;;;0.25;;
55469;SDS011;41334;47.872;16.384;2023-10-31T19:05:05;1.33;;;0.57;;
55469;SDS011;41334;47.872;16.384;2023-10-31T19:10:07;1.08;;;0.50;;
55469;SDS011;41334;47.872;16.384;2023-10-31T19:15:11;1.17;;;0.30;;
55469;SDS011;41334;47.872;16.384;2023-10-31T19:20:13;0.30;;;0.17;;
55469;SDS011;41334;47.872;16.384;2023-10-31T19:25:15;1.17;;;0.38;;
55469;SDS011;41334;47.872;16.384;2023-10-31T19:30:17;1.33;;;0.45;;
55469;SDS011;41334;47.872;16.384;2023-10-31T19:35:19;0.73;;;0.30;;
55469;SDS011;41334;47.872;16.384;2023-10-31T19:40:25;1.23;;;0.40;;
55469;SDS011;41334;47.872;16.384;2023-10-31T19:45:28;3.38;;;0.73;;
55469;SDS011;41334;47.872;16.384;2023-10-31T19:50:31;2.22;;;0.80;;
55469;SDS011;41334;47.872;16.384;2023-10-31T19:55:33;1.65;;;0.57;;
55469;SDS011;41334;47.872;16.384;2023-10-31T20:00:36;0.10;;;0.00;;
55469;SDS011;41334;47.872;16.384;2023-10-31T20:05:38;0.90;;;0.25;;
55469;SDS011;41334;47.872;16.384;2023-10-31T20:10:40;0.03;;;0.00;;
55469;SDS011;41334;47.872;16.384;2023-10-31T20:15:43;1.17;;;0.30;;
55469;SDS011;41334;47.872;16.384;2023-10-31T20:20:45;0.17;;;0.10;;
55469;SDS011;41334;47.872;16.384;2023-10-31T20:25:48;0.00;;;0.00;;
55469;SDS011;41334;47.872;16.384;2023-10-31T20:30:51;0.47;;;0.10;;
55469;SDS011;41334;47.872;16.384;2023-10-31T20:35:54;1.98;;;0.38;;
55469;SDS011;41334;47.872;16.384;2023-10-31T20:40:55;0.35;;;0.20;;
55469;SDS011;41334;47.872;16.384;2023-10-31T20:45:57;0.08;;;0.00;;
55469;SDS011;41334;47.872;16.384;2023-10-31T20:50:59;1.15;;;0.43;;
55469;SDS011;41334;47.872;16.384;2023-10-31T20:56:03;0.15;;;0.10;;
55469;SDS011;41334;47.872;16.384;2023-10-31T21:01:07;1.23;;;0.40;;
55469;SDS011;41334;47.872;16.384;2023-10-31T21:06:10;1.50;;;0.40;;
55469;SDS011;41334;47.872;16.384;2023-10-31T21:11:12;2.35;;;0.47;;
55469;SDS011;41334;47.872;16.384;2023-10-31T21:16:15;2.13;;;0.52;;
55469;SDS011;41334;47.872;16.384;2023-10-31T21:21:17;0.30;;;0.10;;
55469;SDS011;41334;47.872;16.384;2023-10-31T21:26:19;0.60;;;0.20;;
55469;SDS011;41334;47.872;16.384;2023-10-31T21:31:22;0.30;;;0.10;;
55469;SDS011;41334;47.872;16.384;2023-10-31T21:36:24;1.23;;;0.45;;
55469;SDS011;41334;47.872;16.384;2023-10-31T21:41:26;0.50;;;0.30;;
55469;SDS011;41334;47.872;16.384;2023-10-31T21:46:28;0.60;;;0.25;;
55469;SDS011;41334;47.872;16.384;2023-10-31T21:51:32;1.70;;;0.50;;
55469;SDS011;41334;47.872;16.384;2023-10-31T21:56:34;2.00;;;0.50;;
55469;SDS011;41334;47.872;16.384;2023-10-31T22:01:36;0.52;;;0.30;;
55469;SDS011;41334;47.872;16.384;2023-10-31T22:06:38;1.05;;;0.57;;
55469;SDS011;41334;47.872;16.384;2023-10-31T22:11:40;4.28;;;0.47;;
55469;SDS011;41334;47.872;16.384;2023-10-31T22:16:44;1.50;;;0.55;;
55469;SDS011;41334;47.872;16.384;2023-10-31T22:21:45;1.00;;;0.38;;
55469;SDS011;41334;47.872;16.384;2023-10-31T22:26:48;0.50;;;0.30;;
55469;SDS011;41334;47.872;16.384;2023-10-31T22:31:49;0.50;;;0.20;;
55469;SDS011;41334;47.872;16.384;2023-10-31T22:36:51;1.88;;;0.60;;
55469;SDS011;41334;47.872;16.384;2023-10-31T22:41:55;1.48;;;0.55;;
55469;SDS011;41334;47.872;16.384;2023-10-31T22:46:57;1.25;;;0.40;;
55469;SDS011;41334;47.872;16.384;2023-10-31T22:51:59;3.63;;;0.93;;
55469;SDS011;41334;47.872;16.384;2023-10-31T22:57:01;1.73;;;0.65;;
55469;SDS011;41334;47.872;16.384;2023-10-31T23:02:03;1.33;;;0.57;;
55469;SDS011;41334;47.872;16.384;2023-10-31T23:07:06;1.35;;;0.60;;
55469;SDS011;41334;47.872;16.384;2023-10-31T23:12:08;1.20;;;0.47;;
55469;SDS011;41334;47.872;16.384;2023-10-31T23:17:10;1.63;;;0.47;;
55469;SDS011;41334;47.872;16.384;2023-10-31T23:22:11;1.42;;;0.50;;
55469;SDS011;41334;47.872;16.384;2023-10-31T23:27:13;0.90;;;0.40;;
55469;SDS011;41334;47.872;16.384;2023-10-31T23:32:18;2.38;;;0.82;;
55469;SDS011;41334;47.872;16.384;2023-10-31T23:37:20;0.52;;;0.20;;
55469;SDS011;41334;47.872;16.384;2023-10-31T23:42:22;0.90;;;0.50;;
55469;SDS011;41334;47.872;16.384;2023-10-31T23:47:24;0.20;;;0.13;;
55469;SDS011;41334;47.872;16.384;2023-10-31T23:52:26;4.47;;;0.20;;
55469;SDS011;41334;47.872;16.384;2023-10-31T23:57:28;1.15;;;0.40;;
